Terminal Aerodrome Forecast
Issued by NWS

Home | Current Version | Previous Version | Graphics & Text | Print | Product List | Glossary On
Versions: 1 2 3 4 5 6 7 8 9 10 11 12 13 14 15 16 17 18 19 20 21 22 23 24
000
FTUS43 KPAH 270500
TAFOWB
TAF
KOWB 270520Z 2706/2806 00000KT P6SM FEW250
     FM270800 00000KT 4SM BR FEW250
     FM271400 VRB03KT P6SM SCT060
     FM280100 00000KT P6SM FEW060=

USA.gov is the U.S. government's official web portal to all federal, state and local government web resources and services.